sensor_id;sensor_type;location;lat;lon;timestamp;temperature;humidity
68480;DHT22;55469;48.934;12.050;2023-10-13T00:00:32;15.60;93.10
68480;DHT22;55469;48.934;12.050;2023-10-13T00:03:05;15.60;93.10
68480;DHT22;55469;48.934;12.050;2023-10-13T00:05:31;15.60;93.00
68480;DHT22;55469;48.934;12.050;2023-10-13T00:07:59;15.60;93.00
68480;DHT22;55469;48.934;12.050;2023-10-13T00:10:29;15.60;93.10
68480;DHT22;55469;48.934;12.050;2023-10-13T00:12:56;15.60;92.90
68480;DHT22;55469;48.934;12.050;2023-10-13T00:15:51;15.60;93.00
68480;DHT22;55469;48.934;12.050;2023-10-13T00:18:30;15.60;93.00
68480;DHT22;55469;48.934;12.050;2023-10-13T00:21:02;15.60;93.20
68480;DHT22;55469;48.934;12.050;2023-10-13T00:23:38;15.60;93.00
68480;DHT22;55469;48.934;12.050;2023-10-13T00:26:04;15.60;93.00
68480;DHT22;55469;48.934;12.050;2023-10-13T00:28:34;15.60;93.00
68480;DHT22;55469;48.934;12.050;2023-10-13T00:31:12;15.50;92.90
68480;DHT22;55469;48.934;12.050;2023-10-13T00:33:40;15.60;93.10
68480;DHT22;55469;48.934;12.050;2023-10-13T00:36:12;15.50;93.00
68480;DHT22;55469;48.934;12.050;2023-10-13T00:38:44;15.50;93.00
68480;DHT22;55469;48.934;12.050;2023-10-13T00:41:14;15.50;93.10
68480;DHT22;55469;48.934;12.050;2023-10-13T00:43:48;15.50;93.00
68480;DHT22;55469;48.934;12.050;2023-10-13T00:46:33;15.50;93.10
68480;DHT22;55469;48.934;12.050;2023-10-13T00:49:01;15.50;93.00
68480;DHT22;55469;48.934;12.050;2023-10-13T00:51:33;15.50;93.00
68480;DHT22;55469;48.934;12.050;2023-10-13T00:54:07;15.50;93.10
68480;DHT22;55469;48.934;12.050;2023-10-13T00:56:38;15.40;93.10
68480;DHT22;55469;48.934;12.050;2023-10-13T00:59:22;15.40;93.00
68480;DHT22;55469;48.934;12.050;2023-10-13T01:01:51;15.40;93.00
68480;DHT22;55469;48.934;12.050;2023-10-13T01:04:21;15.40;93.10
68480;DHT22;55469;48.934;12.050;2023-10-13T01:06:52;15.40;93.10
68480;DHT22;55469;48.934;12.050;2023-10-13T01:09:18;15.40;93.10
68480;DHT22;55469;48.934;12.050;2023-10-13T01:11:49;15.30;93.60
68480;DHT22;55469;48.934;12.050;2023-10-13T01:14:19;15.30;93.00
68480;DHT22;55469;48.934;12.050;2023-10-13T01:16:46;15.30;93.10
68480;DHT22;55469;48.934;12.050;2023-10-13T01:19:16;15.30;93.10
68480;DHT22;55469;48.934;12.050;2023-10-13T01:21:53;15.30;93.00
68480;DHT22;55469;48.934;12.050;2023-10-13T01:24:28;15.30;93.10
68480;DHT22;55469;48.934;12.050;2023-10-13T01:26:57;15.30;93.20
68480;DHT22;55469;48.934;12.050;2023-10-13T01:29:30;15.20;93.10
68480;DHT22;55469;48.934;12.050;2023-10-13T01:31:55;15.20;93.10
68480;DHT22;55469;48.934;12.050;2023-10-13T01:34:21;15.20;93.20
68480;DHT22;55469;48.934;12.050;2023-10-13T01:36:53;15.20;93.10
68480;DHT22;55469;48.934;12.050;2023-10-13T01:39:21;15.20;93.10
68480;DHT22;55469;48.934;12.050;2023-10-13T01:41:52;15.20;93.10
68480;DHT22;55469;48.934;12.050;2023-10-13T01:44:25;15.10;93.00
68480;DHT22;55469;48.934;12.050;2023-10-13T01:46:56;15.10;93.10
68480;DHT22;55469;48.934;12.050;2023-10-13T01:49:25;15.10;93.10
68480;DHT22;55469;48.934;12.050;2023-10-13T01:51:51;15.10;93.10
68480;DHT22;55469;48.934;12.050;2023-10-13T01:54:17;15.10;93.10
68480;DHT22;55469;48.934;12.050;2023-10-13T01:56:43;15.10;93.10
68480;DHT22;55469;48.934;12.050;2023-10-13T01:59:10;15.10;93.20
68480;DHT22;55469;48.934;12.050;2023-10-13T02:01:37;15.00;93.20
68480;DHT22;55469;48.934;12.050;2023-10-13T02:04:03;15.00;93.20
68480;DHT22;55469;48.934;12.050;2023-10-13T02:06:34;15.00;93.10
68480;DHT22;55469;48.934;12.050;2023-10-13T02:09:08;15.00;93.10
68480;DHT22;55469;48.934;12.050;2023-10-13T02:11:51;15.00;93.20
68480;DHT22;55469;48.934;12.050;2023-10-13T02:14:21;14.90;93.20
68480;DHT22;55469;48.934;12.050;2023-10-13T02:16:51;14.90;93.20
68480;DHT22;55469;48.934;12.050;2023-10-13T02:19:37;14.90;93.30
68480;DHT22;55469;48.934;12.050;2023-10-13T02:22:11;14.90;93.30
68480;DHT22;55469;48.934;12.050;2023-10-13T02:24:37;14.90;93.20
68480;DHT22;55469;48.934;12.050;2023-10-13T02:27:07;14.90;93.30
68480;DHT22;55469;48.934;12.050;2023-10-13T02:29:42;14.90;93.30
68480;DHT22;55469;48.934;12.050;2023-10-13T02:32:11;14.90;93.20
68480;DHT22;55469;48.934;12.050;2023-10-13T02:34:44;14.80;93.30
68480;DHT22;55469;48.934;12.050;2023-10-13T02:37:11;14.80;93.30
68480;DHT22;55469;48.934;12.050;2023-10-13T02:39:38;14.80;93.30
68480;DHT22;55469;48.934;12.050;2023-10-13T02:42:09;14.80;93.30
68480;DHT22;55469;48.934;12.050;2023-10-13T02:44:51;14.80;93.30
68480;DHT22;55469;48.934;12.050;2023-10-13T02:47:18;14.80;93.30
68480;DHT22;55469;48.934;12.050;2023-10-13T02:49:45;14.70;93.30
68480;DHT22;55469;48.934;12.050;2023-10-13T02:52:13;14.70;93.30
68480;DHT22;55469;48.934;12.050;2023-10-13T02:54:40;14.70;93.30
68480;DHT22;55469;48.934;12.050;2023-10-13T02:57:16;14.70;93.20
68480;DHT22;55469;48.934;12.050;2023-10-13T02:59:45;14.70;93.20
68480;DHT22;55469;48.934;12.050;2023-10-13T03:02:21;14.70;93.30
68480;DHT22;55469;48.934;12.050;2023-10-13T03:04:52;14.70;93.20
68480;DHT22;55469;48.934;12.050;2023-10-13T03:07:39;14.70;93.30
68480;DHT22;55469;48.934;12.050;2023-10-13T03:10:09;14.60;93.40
68480;DHT22;55469;48.934;12.050;2023-10-13T03:12:36;14.60;93.30
68480;DHT22;55469;48.934;12.050;2023-10-13T03:15:03;14.60;93.30
68480;DHT22;55469;48.934;12.050;2023-10-13T03:17:45;14.60;93.20
68480;DHT22;55469;48.934;12.050;2023-10-13T03:20:18;14.60;93.30
68480;DHT22;55469;48.934;12.050;2023-10-13T03:23:04;14.60;93.30
68480;DHT22;55469;48.934;12.050;2023-10-13T03:25:34;14.60;93.30
68480;DHT22;55469;48.934;12.050;2023-10-13T03:28:08;14.60;93.30
68480;DHT22;55469;48.934;12.050;2023-10-13T03:30:37;14.50;93.70
68480;DHT22;55469;48.934;12.050;2023-10-13T03:33:10;14.50;93.30
68480;DHT22;55469;48.934;12.050;2023-10-13T03:35:41;14.50;93.30
68480;DHT22;55469;48.934;12.050;2023-10-13T03:38:10;14.50;93.40
68480;DHT22;55469;48.934;12.050;2023-10-13T03:40:45;14.50;93.30
68480;DHT22;55469;48.934;12.050;2023-10-13T03:43:15;14.50;93.30
68480;DHT22;55469;48.934;12.050;2023-10-13T03:45:48;14.50;93.70
68480;DHT22;55469;48.934;12.050;2023-10-13T03:48:19;14.50;93.30
68480;DHT22;55469;48.934;12.050;2023-10-13T03:50:56;14.50;93.30
68480;DHT22;55469;48.934;12.050;2023-10-13T03:53:27;14.50;93.30
68480;DHT22;55469;48.934;12.050;2023-10-13T03:56:05;14.40;93.30
68480;DHT22;55469;48.934;12.050;2023-10-13T03:58:36;14.40;93.20
68480;DHT22;55469;48.934;12.050;2023-10-13T04:01:08;14.40;93.30
68480;DHT22;55469;48.934;12.050;2023-10-13T04:03:37;14.40;93.30
68480;DHT22;55469;48.934;12.050;2023-10-13T04:06:06;14.40;93.30
68480;DHT22;55469;48.934;12.050;2023-10-13T04:08:33;14.40;93.30
68480;DHT22;55469;48.934;12.050;2023-10-13T04:11:08;14.40;93.30
68480;DHT22;55469;48.934;12.050;2023-10-13T04:13:53;14.40;93.40
68480;DHT22;55469;48.934;12.050;2023-10-13T04:16:37;14.40;93.40
68480;DHT22;55469;48.934;12.050;2023-10-13T04:19:05;14.40;93.80
68480;DHT22;55469;48.934;12.050;2023-10-13T04:21:34;14.30;93.30
68480;DHT22;55469;48.934;12.050;2023-10-13T04:24:10;14.30;93.30
68480;DHT22;55469;48.934;12.050;2023-10-13T04:26:43;14.30;93.30
68480;DHT22;55469;48.934;12.050;2023-10-13T04:29:29;14.30;93.30
68480;DHT22;55469;48.934;12.050;2023-10-13T04:32:13;14.30;93.40
68480;DHT22;55469;48.934;12.050;2023-10-13T04:34:40;14.20;93.40
68480;DHT22;55469;48.934;12.050;2023-10-13T04:37:11;14.30;93.40
68480;DHT22;55469;48.934;12.050;2023-10-13T04:39:58;14.20;93.40
68480;DHT22;55469;48.934;12.050;2023-10-13T04:42:37;14.20;93.40
68480;DHT22;55469;48.934;12.050;2023-10-13T04:45:18;14.20;93.40
68480;DHT22;55469;48.934;12.050;2023-10-13T04:48:01;14.20;93.50
68480;DHT22;55469;48.934;12.050;2023-10-13T04:50:47;14.20;93.40
68480;DHT22;55469;48.934;12.050;2023-10-13T04:53:17;14.20;93.40
68480;DHT22;55469;48.934;12.050;2023-10-13T04:56:00;14.20;93.40
68480;DHT22;55469;48.934;12.050;2023-10-13T04:58:29;14.20;93.40
68480;DHT22;55469;48.934;12.050;2023-10-13T05:01:05;14.20;93.40
68480;DHT22;55469;48.934;12.050;2023-10-13T05:04:08;14.20;93.40
68480;DHT22;55469;48.934;12.050;2023-10-13T05:06:39;14.10;93.40
68480;DHT22;55469;48.934;12.050;2023-10-13T05:09:12;14.10;93.30
68480;DHT22;55469;48.934;12.050;2023-10-13T05:11:57;14.10;93.40
68480;DHT22;55469;48.934;12.050;2023-10-13T05:14:41;14.10;93.30
68480;DHT22;55469;48.934;12.050;2023-10-13T05:17:26;14.10;93.40
68480;DHT22;55469;48.934;12.050;2023-10-13T05:20:10;14.00;93.40
68480;DHT22;55469;48.934;12.050;2023-10-13T05:22:54;14.10;93.40
68480;DHT22;55469;48.934;12.050;2023-10-13T05:25:38;14.00;93.30
68480;DHT22;55469;48.934;12.050;2023-10-13T05:28:22;14.00;93.30
68480;DHT22;55469;48.934;12.050;2023-10-13T05:31:07;14.00;93.40
68480;DHT22;55469;48.934;12.050;2023-10-13T05:33:52;14.00;93.50
68480;DHT22;55469;48.934;12.050;2023-10-13T05:36:36;14.00;93.40
68480;DHT22;55469;48.934;12.050;2023-10-13T05:39:20;14.00;93.40
68480;DHT22;55469;48.934;12.050;2023-10-13T05:42:05;14.00;93.90
68480;DHT22;55469;48.934;12.050;2023-10-13T05:44:49;14.00;93.40
68480;DHT22;55469;48.934;12.050;2023-10-13T05:47:33;14.00;93.50
68480;DHT22;55469;48.934;12.050;2023-10-13T05:50:13;14.00;93.40
68480;DHT22;55469;48.934;12.050;2023-10-13T05:52:48;13.90;93.40
68480;DHT22;55469;48.934;12.050;2023-10-13T05:55:17;14.00;93.50
68480;DHT22;55469;48.934;12.050;2023-10-13T05:58:02;13.90;93.40
68480;DHT22;55469;48.934;12.050;2023-10-13T06:00:46;14.00;93.40
68480;DHT22;55469;48.934;12.050;2023-10-13T06:03:30;13.90;93.50
68480;DHT22;55469;48.934;12.050;2023-10-13T06:06:14;13.90;93.90
68480;DHT22;55469;48.934;12.050;2023-10-13T06:08:58;14.00;93.50
68480;DHT22;55469;48.934;12.050;2023-10-13T06:11:42;13.90;93.40
68480;DHT22;55469;48.934;12.050;2023-10-13T06:14:26;14.00;93.50
68480;DHT22;55469;48.934;12.050;2023-10-13T06:17:11;14.00;93.40
68480;DHT22;55469;48.934;12.050;2023-10-13T06:19:55;14.00;93.40
68480;DHT22;55469;48.934;12.050;2023-10-13T06:22:39;13.90;93.40
68480;DHT22;55469;48.934;12.050;2023-10-13T06:25:23;13.90;93.40
68480;DHT22;55469;48.934;12.050;2023-10-13T06:28:07;13.90;93.40
68480;DHT22;55469;48.934;12.050;2023-10-13T06:30:57;13.90;93.40
68480;DHT22;55469;48.934;12.050;2023-10-13T06:33:24;13.90;93.40
68480;DHT22;55469;48.934;12.050;2023-10-13T06:35:57;13.90;93.40
68480;DHT22;55469;48.934;12.050;2023-10-13T06:38:23;13.90;93.40
68480;DHT22;55469;48.934;12.050;2023-10-13T06:40:49;13.90;93.40
68480;DHT22;55469;48.934;12.050;2023-10-13T06:43:17;13.90;93.40
68480;DHT22;55469;48.934;12.050;2023-10-13T06:45:47;13.90;93.40
68480;DHT22;55469;48.934;12.050;2023-10-13T06:48:26;13.90;93.40
68480;DHT22;55469;48.934;12.050;2023-10-13T06:50:52;13.90;93.50
68480;DHT22;55469;48.934;12.050;2023-10-13T06:53:21;13.90;93.40
68480;DHT22;55469;48.934;12.050;2023-10-13T06:55:47;13.90;93.50
68480;DHT22;55469;48.934;12.050;2023-10-13T06:58:15;13.90;93.50
68480;DHT22;55469;48.934;12.050;2023-10-13T07:00:43;13.90;93.40
68480;DHT22;55469;48.934;12.050;2023-10-13T07:03:22;13.90;93.40
68480;DHT22;55469;48.934;12.050;2023-10-13T07:05:48;13.90;93.80
68480;DHT22;55469;48.934;12.050;2023-10-13T07:08:14;13.90;93.30
68480;DHT22;55469;48.934;12.050;2023-10-13T07:10:53;13.90;93.40
68480;DHT22;55469;48.934;12.050;2023-10-13T07:13:43;13.90;93.40
68480;DHT22;55469;48.934;12.050;2023-10-13T07:16:15;13.90;93.50
68480;DHT22;55469;48.934;12.050;2023-10-13T07:18:41;13.90;93.50
68480;DHT22;55469;48.934;12.050;2023-10-13T07:21:15;14.00;93.50
68480;DHT22;55469;48.934;12.050;2023-10-13T07:23:41;14.00;93.60
68480;DHT22;55469;48.934;12.050;2023-10-13T07:26:21;14.00;93.50
68480;DHT22;55469;48.934;12.050;2023-10-13T07:28:48;14.00;93.50
68480;DHT22;55469;48.934;12.050;2023-10-13T07:31:17;13.90;93.40
68480;DHT22;55469;48.934;12.050;2023-10-13T07:33:44;13.90;93.50
68480;DHT22;55469;48.934;12.050;2023-10-13T07:36:10;14.00;93.40
68480;DHT22;55469;48.934;12.050;2023-10-13T07:38:37;14.00;93.50
68480;DHT22;55469;48.934;12.050;2023-10-13T07:41:03;13.90;93.40
68480;DHT22;55469;48.934;12.050;2023-10-13T07:43:34;14.00;93.50
68480;DHT22;55469;48.934;12.050;2023-10-13T07:46:00;14.00;93.60
68480;DHT22;55469;48.934;12.050;2023-10-13T07:48:32;14.00;93.60
68480;DHT22;55469;48.934;12.050;2023-10-13T07:50:59;14.00;93.60
68480;DHT22;55469;48.934;12.050;2023-10-13T07:53:27;14.00;93.40
68480;DHT22;55469;48.934;12.050;2023-10-13T07:56:02;14.00;93.50
68480;DHT22;55469;48.934;12.050;2023-10-13T07:58:31;14.00;93.40
68480;DHT22;55469;48.934;12.050;2023-10-13T08:00:57;14.00;93.50
68480;DHT22;55469;48.934;12.050;2023-10-13T08:03:34;14.00;93.50
68480;DHT22;55469;48.934;12.050;2023-10-13T08:06:08;14.00;93.50
68480;DHT22;55469;48.934;12.050;2023-10-13T08:08:37;14.00;93.30
68480;DHT22;55469;48.934;12.050;2023-10-13T08:11:08;14.00;93.30
68480;DHT22;55469;48.934;12.050;2023-10-13T08:13:46;14.00;93.30
68480;DHT22;55469;48.934;12.050;2023-10-13T08:16:15;14.10;93.40
68480;DHT22;55469;48.934;12.050;2023-10-13T08:18:52;14.10;93.50
68480;DHT22;55469;48.934;12.050;2023-10-13T08:21:18;14.10;93.60
68480;DHT22;55469;48.934;12.050;2023-10-13T08:23:57;14.10;93.70
68480;DHT22;55469;48.934;12.050;2023-10-13T08:26:28;14.20;93.80
68480;DHT22;55469;48.934;12.050;2023-10-13T08:29:03;14.10;93.60
68480;DHT22;55469;48.934;12.050;2023-10-13T08:31:52;14.20;93.60
68480;DHT22;55469;48.934;12.050;2023-10-13T08:34:33;14.20;93.60
68480;DHT22;55469;48.934;12.050;2023-10-13T08:37:26;14.20;93.50
68480;DHT22;55469;48.934;12.050;2023-10-13T08:39:54;14.20;93.40
68480;DHT22;55469;48.934;12.050;2023-10-13T08:42:34;14.20;93.50
68480;DHT22;55469;48.934;12.050;2023-10-13T08:45:08;14.20;93.40
68480;DHT22;55469;48.934;12.050;2023-10-13T08:47:57;14.20;93.40
68480;DHT22;55469;48.934;12.050;2023-10-13T08:50:50;14.30;93.90
68480;DHT22;55469;48.934;12.050;2023-10-13T08:53:20;14.30;93.40
68480;DHT22;55469;48.934;12.050;2023-10-13T08:56:06;14.30;93.40
68480;DHT22;55469;48.934;12.050;2023-10-13T08:58:51;14.30;93.40
68480;DHT22;55469;48.934;12.050;2023-10-13T09:01:31;14.40;93.40
68480;DHT22;55469;48.934;12.050;2023-10-13T09:04:16;14.40;93.40
68480;DHT22;55469;48.934;12.050;2023-10-13T09:07:03;14.40;93.90
68480;DHT22;55469;48.934;12.050;2023-10-13T09:14:40;14.40;93.30
68480;DHT22;55469;48.934;12.050;2023-10-13T09:17:12;14.40;93.40
68480;DHT22;55469;48.934;12.050;2023-10-13T09:19:59;14.40;93.30
68480;DHT22;55469;48.934;12.050;2023-10-13T09:22:46;14.40;93.30
68480;DHT22;55469;48.934;12.050;2023-10-13T09:25:30;14.40;93.30
68480;DHT22;55469;48.934;12.050;2023-10-13T09:28:22;14.50;93.30
68480;DHT22;55469;48.934;12.050;2023-10-13T09:30:49;14.50;93.30
68480;DHT22;55469;48.934;12.050;2023-10-13T09:33:22;14.50;93.30
68480;DHT22;55469;48.934;12.050;2023-10-13T09:36:02;14.50;93.30
68480;DHT22;55469;48.934;12.050;2023-10-13T09:38:33;14.60;93.30
68480;DHT22;55469;48.934;12.050;2023-10-13T09:41:05;14.60;93.30
68480;DHT22;55469;48.934;12.050;2023-10-13T09:43:44;14.60;93.30
68480;DHT22;55469;48.934;12.050;2023-10-13T09:46:18;14.70;93.30
68480;DHT22;55469;48.934;12.050;2023-10-13T09:48:47;14.70;93.30
68480;DHT22;55469;48.934;12.050;2023-10-13T09:51:16;14.70;93.50
68480;DHT22;55469;48.934;12.050;2023-10-13T09:54:17;14.70;93.20
68480;DHT22;55469;48.934;12.050;2023-10-13T09:56:57;14.70;93.20
68480;DHT22;55469;48.934;12.050;2023-10-13T09:59:46;14.80;93.20
68480;DHT22;55469;48.934;12.050;2023-10-13T10:02:18;14.80;93.10
68480;DHT22;55469;48.934;12.050;2023-10-13T10:04:54;14.80;93.10
68480;DHT22;55469;48.934;12.050;2023-10-13T10:07:36;14.90;93.00
68480;DHT22;55469;48.934;12.050;2023-10-13T10:10:05;14.90;93.00
68480;DHT22;55469;48.934;12.050;2023-10-13T10:12:48;14.90;92.90
68480;DHT22;55469;48.934;12.050;2023-10-13T10:15:35;14.90;93.00
68480;DHT22;55469;48.934;12.050;2023-10-13T10:18:20;14.90;92.90
68480;DHT22;55469;48.934;12.050;2023-10-13T10:20:48;15.00;92.80
68480;DHT22;55469;48.934;12.050;2023-10-13T10:23:27;15.00;92.80
68480;DHT22;55469;48.934;12.050;2023-10-13T10:26:15;15.00;92.90
68480;DHT22;55469;48.934;12.050;2023-10-13T10:28:47;15.10;92.90
68480;DHT22;55469;48.934;12.050;2023-10-13T10:31:13;15.10;92.80
68480;DHT22;55469;48.934;12.050;2023-10-13T10:33:42;15.10;92.60
68480;DHT22;55469;48.934;12.050;2023-10-13T10:36:09;15.10;92.50
68480;DHT22;55469;48.934;12.050;2023-10-13T10:38:56;15.10;92.40
68480;DHT22;55469;48.934;12.050;2023-10-13T10:41:30;15.20;93.10
68480;DHT22;55469;48.934;12.050;2023-10-13T10:44:13;15.20;92.50
68480;DHT22;55469;48.934;12.050;2023-10-13T10:46:49;15.30;92.40
68480;DHT22;55469;48.934;12.050;2023-10-13T10:49:20;15.30;92.40
68480;DHT22;55469;48.934;12.050;2023-10-13T10:51:59;15.30;92.30
68480;DHT22;55469;48.934;12.050;2023-10-13T10:54:30;15.40;92.40
68480;DHT22;55469;48.934;12.050;2023-10-13T10:56:58;15.40;92.30
68480;DHT22;55469;48.934;12.050;2023-10-13T10:59:53;15.40;92.20
68480;DHT22;55469;48.934;12.050;2023-10-13T11:02:36;15.40;92.20
68480;DHT22;55469;48.934;12.050;2023-10-13T11:05:06;15.50;92.20
68480;DHT22;55469;48.934;12.050;2023-10-13T11:07:35;15.50;92.20
68480;DHT22;55469;48.934;12.050;2023-10-13T11:10:08;15.50;92.10
68480;DHT22;55469;48.934;12.050;2023-10-13T11:12:55;15.60;92.00
68480;DHT22;55469;48.934;12.050;2023-10-13T11:15:22;15.60;92.00
68480;DHT22;55469;48.934;12.050;2023-10-13T11:17:51;15.60;91.90
68480;DHT22;55469;48.934;12.050;2023-10-13T11:20:20;15.70;91.90
68480;DHT22;55469;48.934;12.050;2023-10-13T11:23:00;15.70;91.80
68480;DHT22;55469;48.934;12.050;2023-10-13T11:25:31;15.80;91.80
68480;DHT22;55469;48.934;12.050;2023-10-13T11:28:13;15.80;91.80
68480;DHT22;55469;48.934;12.050;2023-10-13T11:30:43;15.80;91.80
68480;DHT22;55469;48.934;12.050;2023-10-13T11:33:15;15.80;91.70
68480;DHT22;55469;48.934;12.050;2023-10-13T11:35:55;15.80;91.60
68480;DHT22;55469;48.934;12.050;2023-10-13T11:40:59;15.90;91.90
68480;DHT22;55469;48.934;12.050;2023-10-13T11:43:40;16.00;91.50
68480;DHT22;55469;48.934;12.050;2023-10-13T11:46:17;16.00;91.50
68480;DHT22;55469;48.934;12.050;2023-10-13T11:51:46;16.10;91.30
68480;DHT22;55469;48.934;12.050;2023-10-13T11:54:17;16.10;91.30
68480;DHT22;55469;48.934;12.050;2023-10-13T11:56:48;16.10;91.20
68480;DHT22;55469;48.934;12.050;2023-10-13T11:59:14;16.10;91.30
68480;DHT22;55469;48.934;12.050;2023-10-13T12:04:29;16.20;91.20
68480;DHT22;55469;48.934;12.050;2023-10-13T12:07:18;16.20;91.20
68480;DHT22;55469;48.934;12.050;2023-10-13T12:09:52;16.20;91.20
68480;DHT22;55469;48.934;12.050;2023-10-13T12:12:28;16.30;91.50
68480;DHT22;55469;48.934;12.050;2023-10-13T12:14:54;16.30;91.20
68480;DHT22;55469;48.934;12.050;2023-10-13T12:17:30;16.30;91.70
68480;DHT22;55469;48.934;12.050;2023-10-13T12:20:05;16.40;91.40
68480;DHT22;55469;48.934;12.050;2023-10-13T12:22:37;16.40;91.20
68480;DHT22;55469;48.934;12.050;2023-10-13T12:25:11;16.40;91.30
68480;DHT22;55469;48.934;12.050;2023-10-13T12:27:55;16.40;91.20
68480;DHT22;55469;48.934;12.050;2023-10-13T12:30:31;16.50;91.20
68480;DHT22;55469;48.934;12.050;2023-10-13T12:33:16;16.50;91.20
68480;DHT22;55469;48.934;12.050;2023-10-13T12:36:00;16.50;91.20
68480;DHT22;55469;48.934;12.050;2023-10-13T12:38:38;16.50;91.20
68480;DHT22;55469;48.934;12.050;2023-10-13T12:41:17;16.50;91.20
68480;DHT22;55469;48.934;12.050;2023-10-13T12:44:03;16.60;91.20
68480;DHT22;55469;48.934;12.050;2023-10-13T12:46:48;16.60;91.10
68480;DHT22;55469;48.934;12.050;2023-10-13T12:49:33;16.60;91.00
68480;DHT22;55469;48.934;12.050;2023-10-13T12:52:11;16.60;91.20
68480;DHT22;55469;48.934;12.050;2023-10-13T12:54:57;16.70;91.10
68480;DHT22;55469;48.934;12.050;2023-10-13T12:57:27;16.70;91.10
68480;DHT22;55469;48.934;12.050;2023-10-13T12:59:54;16.70;90.90
68480;DHT22;55469;48.934;12.050;2023-10-13T13:02:21;16.70;90.90
68480;DHT22;55469;48.934;12.050;2023-10-13T13:04:50;16.70;90.90
68480;DHT22;55469;48.934;12.050;2023-10-13T13:07:20;16.80;91.00
68480;DHT22;55469;48.934;12.050;2023-10-13T13:09:45;16.80;90.90
68480;DHT22;55469;48.934;12.050;2023-10-13T13:12:11;16.80;90.80
68480;DHT22;55469;48.934;12.050;2023-10-13T13:14:40;16.80;90.90
68480;DHT22;55469;48.934;12.050;2023-10-13T13:17:11;16.80;90.80
68480;DHT22;55469;48.934;12.050;2023-10-13T13:19:37;16.90;90.90
68480;DHT22;55469;48.934;12.050;2023-10-13T13:22:08;16.90;90.90
68480;DHT22;55469;48.934;12.050;2023-10-13T13:24:42;16.90;90.80
68480;DHT22;55469;48.934;12.050;2023-10-13T13:27:16;17.00;90.80
68480;DHT22;55469;48.934;12.050;2023-10-13T13:29:48;16.90;90.80
68480;DHT22;55469;48.934;12.050;2023-10-13T13:32:14;17.00;90.80
68480;DHT22;55469;48.934;12.050;2023-10-13T13:34:44;17.00;90.70
68480;DHT22;55469;48.934;12.050;2023-10-13T13:37:19;17.00;90.70
68480;DHT22;55469;48.934;12.050;2023-10-13T13:39:45;17.00;90.70
68480;DHT22;55469;48.934;12.050;2023-10-13T13:42:11;17.00;90.70
68480;DHT22;55469;48.934;12.050;2023-10-13T13:44:46;17.10;90.70
68480;DHT22;55469;48.934;12.050;2023-10-13T13:47:13;17.10;90.70
68480;DHT22;55469;48.934;12.050;2023-10-13T13:49:40;17.10;90.70
68480;DHT22;55469;48.934;12.050;2023-10-13T13:52:09;17.10;90.70
68480;DHT22;55469;48.934;12.050;2023-10-13T13:54:35;17.20;90.70
68480;DHT22;55469;48.934;12.050;2023-10-13T13:57:01;17.20;90.70
68480;DHT22;55469;48.934;12.050;2023-10-13T13:59:34;17.20;90.70
68480;DHT22;55469;48.934;12.050;2023-10-13T14:02:01;17.20;90.70
68480;DHT22;55469;48.934;12.050;2023-10-13T14:04:37;17.20;90.60
68480;DHT22;55469;48.934;12.050;2023-10-13T14:07:03;17.20;90.60
68480;DHT22;55469;48.934;12.050;2023-10-13T14:09:31;17.30;90.60
68480;DHT22;55469;48.934;12.050;2023-10-13T14:12:06;17.30;90.60
68480;DHT22;55469;48.934;12.050;2023-10-13T14:14:50;17.30;90.60
68480;DHT22;55469;48.934;12.050;2023-10-13T14:17:23;17.30;90.60
68480;DHT22;55469;48.934;12.050;2023-10-13T14:19:57;17.40;90.60
68480;DHT22;55469;48.934;12.050;2023-10-13T14:22:24;17.40;90.60
68480;DHT22;55469;48.934;12.050;2023-10-13T14:24:51;17.40;90.50
68480;DHT22;55469;48.934;12.050;2023-10-13T14:27:20;17.40;90.50
68480;DHT22;55469;48.934;12.050;2023-10-13T14:29:51;17.40;90.30
68480;DHT22;55469;48.934;12.050;2023-10-13T14:32:18;17.40;90.40
68480;DHT22;55469;48.934;12.050;2023-10-13T14:34:46;17.50;90.30
68480;DHT22;55469;48.934;12.050;2023-10-13T14:37:14;17.50;90.30
68480;DHT22;55469;48.934;12.050;2023-10-13T14:39:46;17.50;90.30
68480;DHT22;55469;48.934;12.050;2023-10-13T14:42:11;17.50;90.40
68480;DHT22;55469;48.934;12.050;2023-10-13T14:44:37;17.50;90.30
68480;DHT22;55469;48.934;12.050;2023-10-13T14:47:03;17.50;90.30
68480;DHT22;55469;48.934;12.050;2023-10-13T14:49:34;17.60;90.80
68480;DHT22;55469;48.934;12.050;2023-10-13T14:52:01;17.60;90.30
68480;DHT22;55469;48.934;12.050;2023-10-13T14:54:27;17.60;90.20
68480;DHT22;55469;48.934;12.050;2023-10-13T14:57:02;17.60;90.20
68480;DHT22;55469;48.934;12.050;2023-10-13T14:59:29;17.70;90.30
68480;DHT22;55469;48.934;12.050;2023-10-13T15:02:04;17.60;90.20
68480;DHT22;55469;48.934;12.050;2023-10-13T15:04:30;17.70;90.20
68480;DHT22;55469;48.934;12.050;2023-10-13T15:06:59;17.70;90.30
68480;DHT22;55469;48.934;12.050;2023-10-13T15:09:31;17.70;90.20
68480;DHT22;55469;48.934;12.050;2023-10-13T15:11:57;17.80;90.30
68480;DHT22;55469;48.934;12.050;2023-10-13T15:14:23;17.70;90.20
68480;DHT22;55469;48.934;12.050;2023-10-13T15:16:51;17.70;90.20
68480;DHT22;55469;48.934;12.050;2023-10-13T15:19:20;17.70;90.20
68480;DHT22;55469;48.934;12.050;2023-10-13T15:21:46;17.70;90.20
68480;DHT22;55469;48.934;12.050;2023-10-13T15:24:16;17.80;90.20
68480;DHT22;55469;48.934;12.050;2023-10-13T15:26:45;17.80;90.20
68480;DHT22;55469;48.934;12.050;2023-10-13T15:29:18;17.80;90.20
68480;DHT22;55469;48.934;12.050;2023-10-13T15:31:50;17.80;90.20
68480;DHT22;55469;48.934;12.050;2023-10-13T15:34:40;17.80;90.20
68480;DHT22;55469;48.934;12.050;2023-10-13T15:37:06;17.90;90.20
68480;DHT22;55469;48.934;12.050;2023-10-13T15:39:31;17.90;90.20
68480;DHT22;55469;48.934;12.050;2023-10-13T15:41:58;17.90;90.20
68480;DHT22;55469;48.934;12.050;2023-10-13T15:44:27;17.90;90.20
68480;DHT22;55469;48.934;12.050;2023-10-13T15:46:57;17.90;90.30
68480;DHT22;55469;48.934;12.050;2023-10-13T15:49:25;17.90;90.20
68480;DHT22;55469;48.934;12.050;2023-10-13T15:51:53;17.90;90.20
68480;DHT22;55469;48.934;12.050;2023-10-13T15:54:21;17.90;90.30
68480;DHT22;55469;48.934;12.050;2023-10-13T15:56:49;17.90;90.30
68480;DHT22;55469;48.934;12.050;2023-10-13T15:59:20;18.00;90.30
68480;DHT22;55469;48.934;12.050;2023-10-13T16:01:48;18.00;90.30
68480;DHT22;55469;48.934;12.050;2023-10-13T16:04:14;17.90;90.30
68480;DHT22;55469;48.934;12.050;2023-10-13T16:06:41;17.90;90.30
68480;DHT22;55469;48.934;12.050;2023-10-13T16:09:12;18.00;90.30